Time;durP1;ratioP1;P1;durP2;ratioP2;P2;SDS_P1;SDS_P2;PMS_P1;PMS_P2;Temp;Humidity;BMP_temperature;BMP_pressure;BME280_temperature;BME280_humidity;BME280_pressure;Samples;Min_cycle;Max_cycle;Signal;HPM_P1;HPM_P2
2022/07/29 00:00:44;;;;;;;0.30;0.30;;;13.90;99.90;;;;;;5049998;28;20137;-72
2022/07/29 00:03:10;;;;;;;0.32;0.32;;;13.90;99.90;;;;;;5057407;28;20376;-72
2022/07/29 00:05:37;;;;;;;0.30;0.30;;;13.90;99.90;;;;;;5048852;28;20055;-72
2022/07/29 00:08:03;;;;;;;0.22;0.22;;;14.00;99.90;;;;;;5045435;28;20058;-72
2022/07/29 00:10:29;;;;;;;0.63;0.63;;;14.00;99.90;;;;;;5038836;28;20410;-72
2022/07/29 00:12:54;;;;;;;0.43;0.43;;;14.00;99.90;;;;;;5053665;28;20037;-72
2022/07/29 00:15:20;;;;;;;0.20;0.20;;;14.00;99.90;;;;;;5069178;28;20044;-73
2022/07/29 00:17:46;;;;;;;0.30;0.30;;;14.00;99.90;;;;;;5053497;28;20040;-73
2022/07/29 00:20:11;;;;;;;0.30;0.30;;;14.00;99.90;;;;;;5049053;28;20063;-72
2022/07/29 00:22:39;;;;;;;0.32;0.32;;;14.00;99.90;;;;;;5052009;28;20041;-72
2022/07/29 00:25:05;;;;;;;0.30;0.30;;;14.00;99.90;;;;;;5049636;28;20487;-71
2022/07/29 00:27:31;;;;;;;0.30;0.30;;;14.10;99.90;;;;;;5031671;28;20091;-71
2022/07/29 00:29:56;;;;;;;0.30;0.30;;;14.10;99.90;;;;;;5049080;28;20033;-70
2022/07/29 00:32:22;;;;;;;0.30;0.30;;;14.10;99.90;;;;;;5053637;28;20079;-71
2022/07/29 00:37:32;;;;;;;0.30;0.30;;;14.10;99.90;;;;;;5049126;28;20049;-72
2022/07/29 00:39:58;;;;;;;0.40;0.40;;;14.20;99.90;;;;;;5050443;28;20049;-71
2022/07/29 00:42:23;;;;;;;0.30;0.30;;;14.10;99.90;;;;;;5051729;28;20098;-72
2022/07/29 00:44:49;;;;;;;;;;;14.10;99.90;;;;;;5049443;28;20652;-72
2022/07/29 00:47:14;;;;;;;0.55;0.55;;;14.20;99.90;;;;;;5051256;28;20343;-72
2022/07/29 00:49:41;;;;;;;0.30;0.30;;;14.20;99.90;;;;;;5049313;28;20033;-72
2022/07/29 00:52:08;;;;;;;0.22;0.22;;;14.20;99.90;;;;;;5050817;28;20040;-72
2022/07/29 00:54:35;;;;;;;0.20;0.20;;;14.20;99.90;;;;;;5049961;28;20045;-71
2022/07/29 00:57:01;;;;;;;0.30;0.30;;;14.20;99.90;;;;;;5049103;28;20080;-72
2022/07/29 00:59:27;;;;;;;;;;;14.20;99.90;;;;;;5052009;28;20036;-70
2022/07/29 01:01:53;;;;;;;0.30;0.30;;;14.30;99.90;;;;;;5049189;28;20320;-72
2022/07/29 01:04:20;;;;;;;0.20;0.20;;;14.30;99.90;;;;;;5051150;28;20390;-72
2022/07/29 01:06:47;;;;;;;0.30;0.30;;;14.30;99.90;;;;;;5033498;28;20377;-72
2022/07/29 01:09:13;;;;;;;0.35;0.35;;;14.30;99.90;;;;;;5050114;28;20041;-72
2022/07/29 01:11:40;;;;;;;0.77;0.77;;;14.30;99.90;;;;;;5044520;28;20069;-72
2022/07/29 01:14:06;;;;;;;0.30;0.30;;;14.40;99.90;;;;;;5053269;28;20440;-72
2022/07/29 01:16:41;;;;;;;0.30;0.30;;;14.30;99.90;;;;;;5053358;28;20562;-71
2022/07/29 01:19:45;;;;;;;0.35;0.35;;;14.40;99.90;;;;;;5060665;28;20128;-71
2022/07/29 01:22:46;;;;;;;0.30;0.30;;;14.40;99.90;;;;;;5053493;28;20067;-71
2022/07/29 01:25:30;;;;;;;0.30;0.30;;;14.40;99.90;;;;;;5057973;28;20056;-72
2022/07/29 01:28:27;;;;;;;0.30;0.30;;;14.50;99.90;;;;;;5055319;28;20045;-71
2022/07/29 01:30:54;;;;;;;0.30;0.30;;;14.40;99.90;;;;;;5052524;28;20045;-71
2022/07/29 01:36:14;;;;;;;0.30;0.30;;;14.50;99.90;;;;;;5053390;28;20413;-72
2022/07/29 01:38:42;;;;;;;0.40;0.40;;;14.40;99.90;;;;;;5051149;28;20079;-72
2022/07/29 01:41:14;;;;;;;0.40;0.40;;;14.40;99.90;;;;;;5054448;28;20045;-71
2022/07/29 01:44:06;;;;;;;0.30;0.30;;;14.50;99.90;;;;;;5055667;28;20040;-71
2022/07/29 01:46:35;;;;;;;0.30;0.30;;;14.50;99.90;;;;;;5054393;28;20044;-71
2022/07/29 01:49:14;;;;;;;0.32;0.32;;;14.50;99.90;;;;;;5037502;28;20045;-72
2022/07/29 01:51:49;;;;;;;0.28;0.28;;;14.40;99.90;;;;;;5052927;28;20433;-72
2022/07/29 01:54:28;;;;;;;0.30;0.30;;;14.40;99.90;;;;;;5050981;28;20429;-72
2022/07/29 01:56:58;;;;;;;0.40;0.40;;;14.40;99.90;;;;;;5053323;28;20049;-71
2022/07/29 01:59:25;;;;;;;0.30;0.30;;;14.40;99.90;;;;;;5052664;28;20041;-73
2022/07/29 02:01:53;;;;;;;0.40;0.40;;;14.40;99.90;;;;;;5051119;28;20426;-72
2022/07/29 02:04:20;;;;;;;0.40;0.40;;;14.40;99.90;;;;;;5053430;28;20056;-72
2022/07/29 02:06:50;;;;;;;0.30;0.30;;;14.40;99.90;;;;;;5053743;28;20037;-72
2022/07/29 02:09:19;;;;;;;0.20;0.20;;;14.40;99.90;;;;;;5052251;28;20036;-72
2022/07/29 02:11:50;;;;;;;0.30;0.30;;;14.40;99.90;;;;;;5049138;28;20041;-72
2022/07/29 02:14:19;;;;;;;0.30;0.30;;;14.40;99.90;;;;;;5068842;28;20902;-72
2022/07/29 02:16:47;;;;;;;0.30;0.30;;;14.40;99.90;;;;;;5051782;28;20052;-73
2022/07/29 02:19:14;;;;;;;0.30;0.30;;;14.40;99.90;;;;;;5034618;28;20041;-72
2022/07/29 02:21:42;;;;;;;0.30;0.30;;;14.40;99.90;;;;;;5033245;28;20037;-71
2022/07/29 02:24:10;;;;;;;0.30;0.30;;;14.40;99.90;;;;;;5055304;28;20044;-72
2022/07/29 02:26:39;;;;;;;0.25;0.25;;;14.40;99.90;;;;;;5058753;28;20056;-73
2022/07/29 02:29:06;;;;;;;0.30;0.30;;;14.40;99.90;;;;;;5050871;28;20459;-71
2022/07/29 02:31:34;;;;;;;0.40;0.40;;;14.40;99.90;;;;;;5044702;28;20423;-72
2022/07/29 02:34:03;;;;;;;0.30;0.30;;;14.40;99.90;;;;;;5064972;28;20033;-72
2022/07/29 02:36:30;;;;;;;0.40;0.40;;;14.40;99.90;;;;;;5050765;28;20049;-72
2022/07/29 02:39:00;;;;;;;0.30;0.30;;;14.40;99.90;;;;;;5051913;28;20045;-72
2022/07/29 02:41:43;;;;;;;0.85;0.85;;;14.40;99.90;;;;;;5052145;28;20139;-72
2022/07/29 02:44:17;;;;;;;0.30;0.30;;;14.40;99.90;;;;;;5054493;28;20526;-73
2022/07/29 02:46:53;;;;;;;0.20;0.20;;;14.40;99.90;;;;;;5055710;28;20115;-71
2022/07/29 02:49:21;;;;;;;0.40;0.40;;;14.40;99.90;;;;;;5050387;28;20257;-71
2022/07/29 02:51:54;;;;;;;0.30;0.30;;;14.40;99.90;;;;;;5066164;28;20387;-71
2022/07/29 02:54:46;;;;;;;0.20;0.20;;;14.40;99.90;;;;;;5055747;28;20032;-72
2022/07/29 02:57:22;;;;;;;0.30;0.30;;;14.40;99.90;;;;;;5049857;28;20044;-71
2022/07/29 02:59:53;;;;;;;0.38;0.38;;;14.40;99.90;;;;;;5053577;28;20138;-71
2022/07/29 03:02:21;;;;;;;0.40;0.40;;;14.30;99.90;;;;;;5052232;28;20037;-72
2022/07/29 03:04:48;;;;;;;0.40;0.40;;;14.30;99.90;;;;;;5052556;28;20528;-72
2022/07/29 03:07:18;;;;;;;0.30;0.30;;;14.30;99.90;;;;;;5052967;28;20367;-72
2022/07/29 03:09:45;;;;;;;0.20;0.20;;;14.30;99.90;;;;;;5049854;28;20056;-71
2022/07/29 03:12:11;;;;;;;0.40;0.40;;;14.30;99.90;;;;;;5053003;28;20047;-72
2022/07/29 03:14:38;;;;;;;0.40;0.40;;;14.30;99.90;;;;;;5051254;28;20391;-73
2022/07/29 03:17:04;;;;;;;0.40;0.40;;;14.20;99.90;;;;;;5043700;28;20045;-73
2022/07/29 03:19:30;;;;;;;;;;;14.20;99.90;;;;;;5053154;28;20123;-72
2022/07/29 03:21:58;;;;;;;0.30;0.30;;;14.20;99.90;;;;;;5051055;28;19917;-73
2022/07/29 03:24:29;;;;;;;0.30;0.30;;;14.10;99.90;;;;;;5051711;28;20136;-74
2022/07/29 03:26:56;;;;;;;0.57;0.57;;;14.10;99.90;;;;;;5050991;28;20052;-73
2022/07/29 03:29:22;;;;;;;0.60;0.60;;;14.20;99.90;;;;;;5051455;28;20487;-72
2022/07/29 03:31:47;;;;;;;0.20;0.20;;;14.10;99.90;;;;;;5050284;28;20588;-72
2022/07/29 03:34:13;;;;;;;;;;;14.10;99.90;;;;;;5049298;28;20055;-72
2022/07/29 03:36:39;;;;;;;2.25;2.05;;;14.10;99.90;;;;;;5044485;28;19917;-71
2022/07/29 03:39:06;;;;;;;0.35;0.35;;;14.10;99.90;;;;;;5051985;28;20384;-73
2022/07/29 03:41:34;;;;;;;0.38;0.38;;;14.10;99.90;;;;;;5050568;28;20052;-71
2022/07/29 03:44:01;;;;;;;0.40;0.40;;;14.10;99.90;;;;;;5054742;28;20486;-72
2022/07/29 03:46:30;;;;;;;0.30;0.30;;;14.10;99.90;;;;;;5056334;28;20045;-71
2022/07/29 03:49:00;;;;;;;0.32;0.32;;;14.10;99.90;;;;;;5049295;28;20049;-71
2022/07/29 03:51:26;;;;;;;0.60;0.60;;;14.10;99.90;;;;;;5050610;28;20041;-71
2022/07/29 03:53:52;;;;;;;0.35;0.35;;;14.10;99.90;;;;;;5050193;28;20479;-71
2022/07/29 03:56:21;;;;;;;0.50;0.50;;;14.10;99.90;;;;;;5042016;28;20055;-72
2022/07/29 03:58:49;;;;;;;0.30;0.30;;;14.10;99.90;;;;;;5050452;28;20067;-72
2022/07/29 04:01:17;;;;;;;0.40;0.40;;;14.10;99.90;;;;;;5052720;28;20075;-72
2022/07/29 04:03:45;;;;;;;0.35;0.35;;;14.10;99.90;;;;;;5055850;28;20037;-71
2022/07/29 04:06:11;;;;;;;0.40;0.40;;;14.10;99.90;;;;;;5034113;28;20048;-71
2022/07/29 04:08:36;;;;;;;;;;;14.10;99.90;;;;;;5049054;28;20120;-70
2022/07/29 04:11:03;;;;;;;1.30;0.73;;;14.20;99.90;;;;;;5051981;28;20079;-72
2022/07/29 04:13:29;;;;;;;0.32;0.32;;;14.20;99.90;;;;;;5050660;28;20079;-72
2022/07/29 04:15:55;;;;;;;;;;;14.20;99.90;;;;;;5047419;28;20099;-70
2022/07/29 04:18:21;;;;;;;0.40;0.40;;;14.20;99.90;;;;;;5050332;28;19916;-72
2022/07/29 04:20:46;;;;;;;0.40;0.40;;;14.20;99.90;;;;;;5051456;28;20072;-72
2022/07/29 04:23:12;;;;;;;;;;;14.20;99.90;;;;;;5051015;28;20071;-71
2022/07/29 04:25:39;;;;;;;0.40;0.40;;;14.30;99.90;;;;;;5052753;28;19932;-72
2022/07/29 04:28:06;;;;;;;0.20;0.20;;;14.30;99.90;;;;;;5049460;28;20379;-71
2022/07/29 04:30:33;;;;;;;0.40;0.40;;;14.30;99.90;;;;;;5047849;28;20033;-71
2022/07/29 04:33:00;;;;;;;0.32;0.32;;;14.30;99.90;;;;;;5055871;28;20116;-71
2022/07/29 04:35:27;;;;;;;0.22;0.22;;;14.30;99.90;;;;;;5051892;28;20041;-72
2022/07/29 04:37:52;;;;;;;0.40;0.40;;;14.40;99.90;;;;;;5049355;28;20047;-72
2022/07/29 04:40:18;;;;;;;0.30;0.30;;;14.40;99.90;;;;;;5050831;28;20033;-72
2022/07/29 04:42:44;;;;;;;0.45;0.45;;;14.40;99.90;;;;;;5049724;28;20071;-71
2022/07/29 04:45:10;;;;;;;0.38;0.38;;;14.50;99.90;;;;;;5050954;28;20053;-71
2022/07/29 04:47:35;;;;;;;0.40;0.40;;;14.50;99.90;;;;;;5053649;28;20363;-72
2022/07/29 04:50:01;;;;;;;;;;;14.50;99.90;;;;;;5054094;28;20037;-71
2022/07/29 04:52:27;;;;;;;0.30;0.30;;;14.60;99.90;;;;;;5060984;28;19916;-72
2022/07/29 04:54:52;;;;;;;;;;;14.60;99.90;;;;;;5055744;28;20094;-72
2022/07/29 04:57:18;;;;;;;0.30;0.30;;;14.60;99.90;;;;;;5054230;28;19952;-72
2022/07/29 04:59:43;;;;;;;0.20;0.20;;;14.60;99.90;;;;;;5053742;28;20086;-72
2022/07/29 05:02:10;;;;;;;0.38;0.38;;;14.60;99.90;;;;;;5059949;28;20041;-72
2022/07/29 05:04:35;;;;;;;0.40;0.40;;;14.70;99.90;;;;;;5057368;28;20041;-72
2022/07/29 05:07:01;;;;;;;0.68;0.30;;;14.70;99.90;;;;;;5058579;28;20126;-71
2022/07/29 05:09:27;;;;;;;;;;;14.70;99.90;;;;;;5057590;28;20397;-71
2022/07/29 05:11:52;;;;;;;0.30;0.30;;;14.80;99.90;;;;;;5054101;28;19970;-72
2022/07/29 05:14:18;;;;;;;0.20;0.20;;;14.80;99.90;;;;;;5059567;28;20079;-72
2022/07/29 05:16:43;;;;;;;;;;;14.80;99.90;;;;;;5054198;28;20467;-73
2022/07/29 05:19:09;;;;;;;0.38;0.38;;;14.90;99.90;;;;;;5054713;28;20649;-71
2022/07/29 05:21:35;;;;;;;;;;;14.90;99.90;;;;;;5054945;28;20083;-71
2022/07/29 05:24:01;;;;;;;0.50;0.50;;;14.90;99.90;;;;;;5057014;28;19921;-72
2022/07/29 05:26:26;;;;;;;;;;;14.90;99.90;;;;;;5059944;28;20052;-71
2022/07/29 05:28:53;;;;;;;0.30;0.30;;;15.00;99.90;;;;;;5056252;28;20051;-71
2022/07/29 05:31:19;;;;;;;0.82;0.82;;;15.00;99.90;;;;;;5053913;28;20041;-71
2022/07/29 05:33:45;;;;;;;0.30;0.30;;;15.10;99.90;;;;;;5060679;28;20067;-72
2022/07/29 05:36:11;;;;;;;0.40;0.40;;;15.10;99.90;;;;;;5052724;28;20162;-71
2022/07/29 05:38:37;;;;;;;;;;;15.20;99.90;;;;;;5054705;28;20564;-72
2022/07/29 05:41:03;;;;;;;0.30;0.30;;;15.20;99.90;;;;;;5050483;28;19928;-72
2022/07/29 05:43:29;;;;;;;0.20;0.20;;;15.30;99.90;;;;;;5054679;28;20323;-71
2022/07/29 05:45:56;;;;;;;0.20;0.20;;;15.40;99.90;;;;;;5056013;28;20045;-71
2022/07/29 05:48:22;;;;;;;0.40;0.40;;;15.50;99.90;;;;;;5058981;28;20045;-72
2022/07/29 05:50:47;;;;;;;0.32;0.32;;;15.50;99.90;;;;;;5050542;28;20043;-71
2022/07/29 05:53:13;;;;;;;0.30;0.30;;;15.60;99.90;;;;;;5054752;28;20064;-71
2022/07/29 05:55:39;;;;;;;0.20;0.20;;;15.70;99.90;;;;;;5051186;28;20045;-70
2022/07/29 05:58:04;;;;;;;0.40;0.40;;;15.80;99.90;;;;;;5053170;28;20117;-71
2022/07/29 06:00:30;;;;;;;;;;;15.90;99.90;;;;;;5053796;28;20037;-72
2022/07/29 06:02:56;;;;;;;0.25;0.25;;;15.90;99.90;;;;;;5035635;28;19924;-72
2022/07/29 06:05:22;;;;;;;;;;;16.00;99.90;;;;;;5053936;28;20394;-71
2022/07/29 06:07:48;;;;;;;0.90;0.90;;;16.10;99.90;;;;;;5052561;28;20328;-71
2022/07/29 06:10:14;;;;;;;;;;;16.10;99.90;;;;;;5053698;28;20467;-72
2022/07/29 06:12:40;;;;;;;0.30;0.30;;;16.10;99.90;;;;;;5053064;28;20270;-73
2022/07/29 06:15:06;;;;;;;;;;;16.20;99.90;;;;;;5050885;28;20075;-70
2022/07/29 06:17:31;;;;;;;0.30;0.30;;;16.30;99.90;;;;;;5057141;28;19917;-70
2022/07/29 06:19:57;;;;;;;0.30;0.30;;;16.30;99.90;;;;;;5054106;28;20055;-71
2022/07/29 06:22:23;;;;;;;0.30;0.30;;;16.40;99.90;;;;;;5057671;28;20049;-72
2022/07/29 06:24:49;;;;;;;0.20;0.20;;;16.50;99.90;;;;;;5061835;28;20516;-71
2022/07/29 06:27:16;;;;;;;0.20;0.20;;;16.60;99.90;;;;;;5055091;28;20045;-71
2022/07/29 06:29:41;;;;;;;0.30;0.30;;;16.70;99.90;;;;;;5051727;28;20029;-70
2022/07/29 06:32:08;;;;;;;;;;;16.70;99.90;;;;;;5039709;28;20478;-69
2022/07/29 06:34:35;;;;;;;0.20;0.20;;;16.80;99.90;;;;;;5053983;28;19917;-70
2022/07/29 06:37:05;;;;;;;0.40;0.40;;;16.90;99.90;;;;;;5050114;28;20041;-70
2022/07/29 06:39:30;;;;;;;0.30;0.30;;;17.00;99.90;;;;;;5052096;28;20047;-70
2022/07/29 06:41:56;;;;;;;;;;;17.00;99.90;;;;;;5065963;28;20056;-69
2022/07/29 06:44:22;;;;;;;0.40;0.40;;;17.10;99.90;;;;;;5051607;28;19920;-70
2022/07/29 06:46:49;;;;;;;;;;;17.20;99.90;;;;;;5061472;28;20033;-68
2022/07/29 06:49:15;;;;;;;0.30;0.30;;;17.30;99.90;;;;;;5050724;28;19917;-70
2022/07/29 06:51:41;;;;;;;;;;;17.30;99.90;;;;;;5053595;28;20390;-70
2022/07/29 06:54:07;;;;;;;0.55;0.55;;;17.40;99.90;;;;;;5049152;28;19917;-70
2022/07/29 06:56:33;;;;;;;;;;;17.50;99.90;;;;;;5055626;28;20048;-71
2022/07/29 06:58:59;;;;;;;0.60;0.60;;;17.70;99.90;;;;;;5052886;28;19925;-70
2022/07/29 07:01:24;;;;;;;;;;;17.80;99.90;;;;;;5054517;28;20040;-70
2022/07/29 07:03:50;;;;;;;0.20;0.20;;;17.90;99.90;;;;;;5055243;28;20006;-70
2022/07/29 07:06:16;;;;;;;;;;;18.00;99.90;;;;;;5052281;28;20659;-69
2022/07/29 07:08:41;;;;;;;0.20;0.20;;;18.00;99.90;;;;;;5050735;28;19978;-70
2022/07/29 07:11:08;;;;;;;;;;;18.10;99.90;;;;;;5050965;28;20124;-71
2022/07/29 07:13:34;;;;;;;0.30;0.30;;;18.20;99.90;;;;;;5051985;28;19926;-70
2022/07/29 07:16:01;;;;;;;0.38;0.38;;;18.30;99.90;;;;;;5050110;28;20033;-70
2022/07/29 07:18:27;;;;;;;0.30;0.30;;;18.30;99.90;;;;;;5053485;28;20379;-70
2022/07/29 07:20:53;;;;;;;0.40;0.40;;;18.50;99.90;;;;;;5050688;28;20049;-70
2022/07/29 07:23:19;;;;;;;;;;;18.50;99.90;;;;;;5049032;28;20052;-71
2022/07/29 07:25:44;;;;;;;0.50;0.50;;;18.60;99.90;;;;;;5051138;28;19927;-71
2022/07/29 07:28:10;;;;;;;;;;;18.60;99.90;;;;;;5052374;28;20084;-70
2022/07/29 07:30:36;;;;;;;0.30;0.30;;;18.60;99.90;;;;;;5043803;28;20392;-70
2022/07/29 07:33:01;;;;;;;;;;;18.60;99.90;;;;;;5056170;28;20033;-71
2022/07/29 07:35:28;;;;;;;0.30;0.30;;;18.70;99.90;;;;;;5049807;28;19964;-71
2022/07/29 07:37:55;;;;;;;0.30;0.30;;;18.70;99.90;;;;;;5048807;28;20041;-70
2022/07/29 07:40:21;;;;;;;0.10;0.10;;;18.70;99.90;;;;;;5050416;28;20052;-69
2022/07/29 07:42:46;;;;;;;0.52;0.52;;;18.70;99.90;;;;;;5049087;28;20036;-69
2022/07/29 07:45:12;;;;;;;0.63;0.63;;;18.70;99.90;;;;;;5047119;28;20521;-70
2022/07/29 07:47:38;;;;;;;;;;;18.70;99.90;;;;;;5045617;28;20058;-70
2022/07/29 07:50:06;;;;;;;0.22;0.22;;;18.80;99.90;;;;;;5049834;28;19969;-69
2022/07/29 07:52:32;;;;;;;0.10;0.10;;;18.90;99.90;;;;;;5051237;28;20059;-72
2022/07/29 07:54:57;;;;;;;0.30;0.30;;;19.00;99.90;;;;;;5030339;28;20045;-70
2022/07/29 07:57:23;;;;;;;0.20;0.20;;;18.90;99.90;;;;;;5034104;28;20401;-70
2022/07/29 07:59:49;;;;;;;0.32;0.32;;;19.00;99.90;;;;;;5057405;28;20348;-69
2022/07/29 08:02:14;;;;;;;;;;;19.10;99.90;;;;;;5054855;28;20036;-70
2022/07/29 08:04:40;;;;;;;0.30;0.30;;;19.20;99.90;;;;;;5052577;28;19970;-70
2022/07/29 08:07:06;;;;;;;;;;;19.40;99.90;;;;;;5055618;28;20036;-69
2022/07/29 08:09:32;;;;;;;0.20;0.20;;;19.50;99.90;;;;;;5049886;28;19917;-70
2022/07/29 08:11:59;;;;;;;0.50;0.35;;;19.60;99.90;;;;;;5045461;28;20040;-70
2022/07/29 08:14:25;;;;;;;0.20;0.20;;;19.50;99.90;;;;;;5054998;28;20033;-71
2022/07/29 08:16:51;;;;;;;0.30;0.30;;;19.50;99.90;;;;;;5035695;28;20065;-71
2022/07/29 08:19:17;;;;;;;0.30;0.30;;;19.50;99.90;;;;;;5049260;28;20040;-71
2022/07/29 08:21:42;;;;;;;0.38;0.38;;;19.50;99.90;;;;;;5049845;28;20467;-71
2022/07/29 08:26:52;;;;;;;0.30;0.30;;;19.80;99.90;;;;;;5057200;28;20072;-70
2022/07/29 08:29:18;;;;;;;0.20;0.20;;;19.90;99.90;;;;;;5050210;28;20454;-70
2022/07/29 08:31:45;;;;;;;0.30;0.30;;;20.00;99.90;;;;;;5052106;28;20044;-71
2022/07/29 08:34:11;;;;;;;0.20;0.20;;;20.10;99.90;;;;;;5057862;28;20048;-71
2022/07/29 08:36:38;;;;;;;0.22;0.22;;;20.30;99.90;;;;;;5049722;28;20048;-71
2022/07/29 08:39:03;;;;;;;0.35;0.35;;;20.30;99.90;;;;;;5052280;28;20055;-71
2022/07/29 08:41:29;;;;;;;0.40;0.40;;;20.40;99.90;;;;;;5047752;28;20041;-71
2022/07/29 08:43:55;;;;;;;0.30;0.30;;;20.40;99.90;;;;;;5033865;28;20049;-72
2022/07/29 08:46:21;;;;;;;0.40;0.40;;;20.50;99.90;;;;;;5050013;28;20464;-72
2022/07/29 08:48:48;;;;;;;0.45;0.45;;;20.60;99.90;;;;;;5049803;28;20068;-71
2022/07/29 08:51:18;;;;;;;0.30;0.30;;;20.70;99.90;;;;;;5048536;28;20564;-71
2022/07/29 08:53:48;;;;;;;0.30;0.30;;;20.80;99.90;;;;;;5050823;28;20457;-71
2022/07/29 08:56:17;;;;;;;0.20;0.20;;;20.80;99.90;;;;;;5051578;28;20522;-71
2022/07/29 08:58:43;;;;;;;0.20;0.20;;;20.90;99.90;;;;;;5045736;28;20049;-71
2022/07/29 09:01:11;;;;;;;0.20;0.20;;;20.90;99.90;;;;;;5052105;28;20049;-72
2022/07/29 09:03:38;;;;;;;0.30;0.30;;;20.90;99.90;;;;;;5048868;28;20542;-70
2022/07/29 09:06:04;;;;;;;0.20;0.20;;;20.90;99.90;;;;;;5050790;28;20449;-70
2022/07/29 09:08:36;;;;;;;0.22;0.22;;;20.90;99.90;;;;;;5051325;28;20091;-72
2022/07/29 09:11:03;;;;;;;0.20;0.20;;;20.90;99.90;;;;;;5051974;28;20477;-72
2022/07/29 09:13:28;;;;;;;0.20;0.20;;;21.00;99.90;;;;;;5049635;28;20140;-71
2022/07/29 09:15:54;;;;;;;0.22;0.22;;;21.10;99.90;;;;;;5052372;28;20116;-71
2022/07/29 09:18:42;;;;;;;0.20;0.20;;;21.10;99.90;;;;;;5051176;28;20524;-71
2022/07/29 09:24:14;;;;;;;0.28;0.28;;;21.10;99.90;;;;;;5047939;28;20147;-71
2022/07/29 09:26:45;;;;;;;0.10;0.10;;;21.10;99.90;;;;;;5050727;28;20057;-71
2022/07/29 09:29:19;;;;;;;0.38;0.38;;;21.20;99.90;;;;;;5048288;28;20084;-71
2022/07/29 09:31:48;;;;;;;0.65;0.30;;;21.20;99.90;;;;;;5052829;28;20147;-71
2022/07/29 09:34:17;;;;;;;0.20;0.20;;;21.30;99.90;;;;;;5045530;28;20368;-71
2022/07/29 09:36:48;;;;;;;0.30;0.30;;;21.40;99.90;;;;;;5043308;28;20542;-70
2022/07/29 09:39:15;;;;;;;0.25;0.25;;;21.40;99.90;;;;;;5052266;28;20120;-70
2022/07/29 09:42:02;;;;;;;0.20;0.20;;;21.40;99.90;;;;;;5053276;28;20398;-70
2022/07/29 09:44:40;;;;;;;;;;;21.40;99.90;;;;;;5052155;28;20044;-72
2022/07/29 09:47:06;;;;;;;0.20;0.20;;;21.40;99.90;;;;;;5053676;28;20274;-71
2022/07/29 09:49:33;;;;;;;0.20;0.20;;;21.40;99.90;;;;;;5052483;28;20044;-70
2022/07/29 09:52:02;;;;;;;0.20;0.20;;;21.30;99.90;;;;;;5059522;28;20045;-71
2022/07/29 09:54:29;;;;;;;0.20;0.20;;;21.30;99.90;;;;;;5052466;28;20137;-72
2022/07/29 09:56:55;;;;;;;0.28;0.28;;;21.30;99.90;;;;;;5053423;28;20098;-71
2022/07/29 09:59:24;;;;;;;0.20;0.20;;;21.30;99.90;;;;;;5052970;28;20515;-72
2022/07/29 10:01:49;;;;;;;0.28;0.28;;;21.30;99.90;;;;;;5052318;28;20086;-71
2022/07/29 10:04:16;;;;;;;0.20;0.20;;;21.30;99.90;;;;;;5049053;28;20041;-71
2022/07/29 10:06:59;;;;;;;0.20;0.20;;;21.50;99.90;;;;;;5049148;28;20166;-70
2022/07/29 10:09:25;;;;;;;0.43;0.43;;;21.60;99.90;;;;;;5052783;28;20420;-72
2022/07/29 10:12:13;;;;;;;0.30;0.30;;;21.60;99.90;;;;;;5052709;28;20101;-72
2022/07/29 10:14:39;;;;;;;0.20;0.20;;;21.60;99.90;;;;;;5053167;28;20087;-72
2022/07/29 10:17:06;;;;;;;0.20;0.20;;;21.60;99.90;;;;;;5063923;28;20049;-71
2022/07/29 10:19:33;;;;;;;0.20;0.20;;;21.60;99.90;;;;;;5053337;28;20044;-72
2022/07/29 10:22:00;;;;;;;0.20;0.20;;;21.60;99.90;;;;;;5053459;28;20090;-71
2022/07/29 10:24:28;;;;;;;0.22;0.22;;;21.50;99.90;;;;;;5052600;28;20075;-72
2022/07/29 10:26:56;;;;;;;0.25;0.25;;;21.50;99.90;;;;;;5052530;28;20494;-71
2022/07/29 10:29:22;;;;;;;0.30;0.30;;;21.50;99.90;;;;;;5051032;28;20059;-71
2022/07/29 10:31:54;;;;;;;0.30;0.30;;;21.60;99.90;;;;;;5052627;28;20082;-71
2022/07/29 10:34:34;;;;;;;0.20;0.20;;;21.60;99.90;;;;;;5052488;28;20497;-69
2022/07/29 10:37:32;;;;;;;0.20;0.20;;;21.60;99.90;;;;;;5050378;28;20402;-71
2022/07/29 10:43:35;;;;;;;0.57;0.57;;;21.60;99.90;;;;;;5049707;28;20692;-71
2022/07/29 10:46:03;;;;;;;0.20;0.20;;;21.90;99.90;;;;;;5051712;28;20394;-72
2022/07/29 10:48:28;;;;;;;0.28;0.28;;;22.00;99.90;;;;;;5039148;28;20347;-71
2022/07/29 10:50:55;;;;;;;0.28;0.28;;;22.00;99.90;;;;;;5043439;28;20037;-71
2022/07/29 10:53:44;;;;;;;0.30;0.30;;;22.00;99.90;;;;;;5052785;28;20459;-71
2022/07/29 10:56:40;;;;;;;0.20;0.20;;;22.10;99.90;;;;;;5046668;28;20049;-71
2022/07/29 10:59:18;;;;;;;0.40;0.40;;;22.10;99.90;;;;;;5048532;28;20056;-71
2022/07/29 11:01:44;;;;;;;0.20;0.20;;;22.20;99.90;;;;;;5051555;28;20410;-71
2022/07/29 11:04:10;;;;;;;0.20;0.20;;;22.20;99.90;;;;;;5052390;28;20533;-71
2022/07/29 11:07:00;;;;;;;0.40;0.40;;;22.20;99.90;;;;;;5053519;28;20033;-72
2022/07/29 11:09:26;;;;;;;0.20;0.20;;;22.20;99.90;;;;;;5041963;28;20485;-71
2022/07/29 11:11:53;;;;;;;0.35;0.35;;;22.20;99.90;;;;;;5053682;28;20040;-71
2022/07/29 11:14:58;;;;;;;0.47;0.47;;;22.00;99.90;;;;;;5051135;28;20106;-71
2022/07/29 11:17:24;;;;;;;0.30;0.30;;;21.70;99.90;;;;;;5049768;28;20432;-71
2022/07/29 11:19:51;;;;;;;0.20;0.20;;;21.50;99.90;;;;;;5059648;28;20033;-71
2022/07/29 11:22:34;;;;;;;0.30;0.30;;;21.50;99.90;;;;;;5049744;28;20516;-71
2022/07/29 11:25:14;;;;;;;0.20;0.20;;;21.20;99.90;;;;;;5056490;28;20068;-71
2022/07/29 11:27:40;;;;;;;0.20;0.20;;;21.30;99.90;;;;;;5052360;28;20044;-71
2022/07/29 11:30:06;;;;;;;0.20;0.20;;;21.30;99.90;;;;;;5046477;28;20063;-72
2022/07/29 11:32:38;;;;;;;0.20;0.20;;;21.40;99.90;;;;;;5048853;28;20036;-71
2022/07/29 11:35:11;;;;;;;0.20;0.20;;;21.60;99.90;;;;;;5052736;28;20040;-71
2022/07/29 11:37:37;;;;;;;0.35;0.35;;;21.70;99.90;;;;;;5053188;28;20531;-71
2022/07/29 11:40:06;;;;;;;0.35;0.35;;;21.80;99.90;;;;;;5048091;28;20776;-71
2022/07/29 11:42:34;;;;;;;0.22;0.22;;;22.00;99.90;;;;;;5054019;28;20047;-71
2022/07/29 11:45:15;;;;;;;0.30;0.30;;;22.10;99.90;;;;;;5052117;28;20045;-72
2022/07/29 11:47:48;;;;;;;0.20;0.20;;;22.30;99.90;;;;;;5049163;28;20037;-73
2022/07/29 11:50:34;;;;;;;0.30;0.30;;;22.60;99.90;;;;;;5041599;28;20064;-72
2022/07/29 11:53:02;;;;;;;0.25;0.25;;;23.00;99.90;;;;;;5047994;28;20127;-71
2022/07/29 11:55:29;;;;;;;0.20;0.20;;;23.40;99.90;;;;;;5047879;28;20045;-70
2022/07/29 11:58:00;;;;;;;0.20;0.20;;;23.90;99.90;;;;;;5052202;28;20041;-72
2022/07/29 12:00:27;;;;;;;0.43;0.25;;;24.20;99.90;;;;;;5049436;28;20045;-70
2022/07/29 12:02:53;;;;;;;0.30;0.30;;;24.40;99.90;;;;;;5054008;28;20053;-71
2022/07/29 12:05:20;;;;;;;0.20;0.20;;;24.70;99.90;;;;;;5049103;28;20516;-71
2022/07/29 12:07:47;;;;;;;0.20;0.20;;;24.90;99.90;;;;;;5053000;28;20432;-70
2022/07/29 12:10:13;;;;;;;0.20;0.20;;;25.00;99.90;;;;;;5043584;28;20036;-71
2022/07/29 12:12:39;;;;;;;0.10;0.10;;;25.20;99.90;;;;;;5053668;28;20072;-71
2022/07/29 12:15:12;;;;;;;0.20;0.20;;;25.40;99.70;;;;;;5049532;28;20075;-69
2022/07/29 12:17:38;;;;;;;0.10;0.10;;;25.50;99.90;;;;;;5051816;28;20037;-70
2022/07/29 12:20:05;;;;;;;0.20;0.20;;;25.60;98.80;;;;;;5052475;28;20049;-70
2022/07/29 12:22:34;;;;;;;0.20;0.20;;;25.80;99.90;;;;;;5050680;28;20056;-71
2022/07/29 12:25:06;;;;;;;0.20;0.20;;;25.90;99.40;;;;;;5060759;28;20057;-72
2022/07/29 12:27:32;;;;;;;0.30;0.30;;;26.00;98.70;;;;;;5048328;28;20758;-71
2022/07/29 12:30:00;;;;;;;0.30;0.30;;;26.00;98.50;;;;;;5042063;28;20497;-72
2022/07/29 12:32:39;;;;;;;0.30;0.30;;;26.10;95.90;;;;;;5052375;28;20040;-71
2022/07/29 12:35:11;;;;;;;0.20;0.20;;;26.00;96.30;;;;;;5046463;28;20036;-71
2022/07/29 12:37:39;;;;;;;0.20;0.20;;;25.90;99.90;;;;;;5051650;28;20768;-71
2022/07/29 12:40:07;;;;;;;0.20;0.20;;;25.90;98.30;;;;;;5048851;28;20037;-72
2022/07/29 12:42:33;;;;;;;0.38;0.38;;;26.00;99.20;;;;;;5048735;28;21277;-70
2022/07/29 12:44:59;;;;;;;0.20;0.20;;;26.10;96.50;;;;;;5049147;28;20103;-72
2022/07/29 12:47:25;;;;;;;0.20;0.20;;;26.20;95.00;;;;;;5061318;28;20040;-72
2022/07/29 12:50:06;;;;;;;0.20;0.20;;;26.10;95.50;;;;;;5052751;28;20456;-72
2022/07/29 12:52:34;;;;;;;0.20;0.20;;;25.90;92.20;;;;;;5052024;28;20072;-71
2022/07/29 12:55:00;;;;;;;0.35;0.35;;;25.80;92.80;;;;;;5047909;28;20053;-73
2022/07/29 12:57:27;;;;;;;0.30;0.30;;;25.90;93.20;;;;;;5058875;28;20048;-72
2022/07/29 13:00:03;;;;;;;0.20;0.20;;;25.90;93.40;;;;;;5053618;28;20075;-72
2022/07/29 13:02:28;;;;;;;0.10;0.10;;;26.00;94.50;;;;;;5056942;28;20052;-70
2022/07/29 13:04:56;;;;;;;0.10;0.10;;;26.20;93.00;;;;;;5051470;28;20067;-70
2022/07/29 13:07:28;;;;;;;0.10;0.10;;;26.30;92.70;;;;;;5051394;28;20048;-70
2022/07/29 13:09:54;;;;;;;0.10;0.10;;;26.40;93.30;;;;;;5050359;28;20082;-71
2022/07/29 13:12:20;;;;;;;0.30;0.30;;;26.60;92.60;;;;;;5056880;28;20435;-71
2022/07/29 13:14:50;;;;;;;0.20;0.20;;;27.10;93.10;;;;;;5055300;28;20044;-72
2022/07/29 13:17:27;;;;;;;0.30;0.30;;;27.50;91.10;;;;;;5058228;28;20037;-71